Rios, Texas
Current Conditions -  °F | °C
As of 9:55 PM on Wednesday 17 Dec 2014 (Local Time) from KHBV Reporting Station
Overcast Overcast  
Wind Chill: 68°   Ceiling: 1700
Heat Index: 68°   Visibility: 10mi
Dew Point: 65°   Wind: 0mph
Humidity: 89%   Direction: NA
Pressure: 30.06"   Gusts: NA
Location:  27.5358°N, 98.3937°W
Report Text: KHBV 180355Z AUTO 00000KT 10SM BKN017 OVC025 20/18 A3006 RMK AO2 T02000181
Loading
Personal Weather Stations






























Interactive Weather Map New forecast layout! Learn more

10-Day Weather Forecast

Advertisements
Track Severe Weather on mobile